createdAt,value
2024-02-26T00:01:53.763Z,997.1
2024-02-26T00:04:53.879Z,997.2
2024-02-26T00:07:54.278Z,997.2
2024-02-26T00:10:53.600Z,997.2
2024-02-26T00:13:53.433Z,997.2
2024-02-26T00:16:53.718Z,997.2
2024-02-26T00:19:56.054Z,997.2
2024-02-26T00:22:53.770Z,997.2
2024-02-26T00:25:53.603Z,997.1
2024-02-26T00:28:53.398Z,997.2
2024-02-26T00:31:53.870Z,997.1
2024-02-26T00:34:54.823Z,997.2
2024-02-26T00:37:53.417Z,997.1
2024-02-26T00:40:53.453Z,997.2
2024-02-26T00:43:53.487Z,997.2
2024-02-26T00:46:53.608Z,997.2
2024-02-26T00:49:54.324Z,997.1
2024-02-26T00:52:53.870Z,997.1
2024-02-26T00:55:53.612Z,997.1
2024-02-26T00:58:53.460Z,997.1
2024-02-26T01:01:53.999Z,997.1
2024-02-26T01:04:54.111Z,997.1
2024-02-26T01:07:55.145Z,997.1
2024-02-26T01:10:53.713Z,997.0
2024-02-26T01:13:53.670Z,997.0
2024-02-26T01:16:54.375Z,997.0
2024-02-26T01:19:54.348Z,997.0
2024-02-26T01:22:53.515Z,996.9
2024-02-26T01:25:53.501Z,996.9
2024-02-26T01:28:53.443Z,997.0
2024-02-26T01:31:53.728Z,997.0
2024-02-26T01:34:54.897Z,996.9
2024-02-26T01:37:53.493Z,996.9
2024-02-26T01:40:53.540Z,996.9
2024-02-26T01:43:53.512Z,997.0
2024-02-26T01:46:53.773Z,997.0
2024-02-26T01:49:54.818Z,997.1
2024-02-26T01:52:53.471Z,997.1
2024-02-26T01:55:53.551Z,997.2
2024-02-26T01:58:53.429Z,997.2
2024-02-26T02:01:54.090Z,997.2
2024-02-26T02:04:53.727Z,997.2
2024-02-26T02:07:54.479Z,997.2
2024-02-26T02:10:53.479Z,997.3
2024-02-26T02:13:53.572Z,997.3
2024-02-26T02:16:53.632Z,997.3
2024-02-26T02:19:53.919Z,997.5
2024-02-26T02:22:53.715Z,997.5
2024-02-26T02:25:53.536Z,997.5
2024-02-26T02:28:53.451Z,997.7
2024-02-26T02:31:53.701Z,997.8
2024-02-26T02:34:54.713Z,997.6
2024-02-26T02:37:53.429Z,997.6
2024-02-26T02:40:53.641Z,997.6
2024-02-26T02:43:53.440Z,997.8
2024-02-26T02:46:53.645Z,997.8
2024-02-26T02:49:54.523Z,997.8
2024-02-26T02:52:53.493Z,997.8
2024-02-26T02:55:53.631Z,997.8
2024-02-26T02:58:53.489Z,997.8
2024-02-26T03:01:54.135Z,997.8
2024-02-26T03:04:53.731Z,997.8
2024-02-26T03:07:54.549Z,997.8
2024-02-26T03:10:53.509Z,997.8
2024-02-26T03:13:53.668Z,998.0
2024-02-26T03:16:53.789Z,998.0
2024-02-26T03:19:54.659Z,998.0
2024-02-26T03:22:53.470Z,997.9
2024-02-26T03:25:53.461Z,998.0
2024-02-26T03:28:53.534Z,998.0
2024-02-26T03:31:53.913Z,998.0
2024-02-26T03:34:55.459Z,998.0
2024-02-26T03:37:53.347Z,998.0
2024-02-26T03:40:53.518Z,998.0
2024-02-26T03:43:53.494Z,998.0
2024-02-26T03:46:53.763Z,998.0
2024-02-26T03:49:54.815Z,998.0
2024-02-26T03:52:53.868Z,998.2
2024-02-26T03:55:53.496Z,998.1
2024-02-26T03:58:53.724Z,998.1
2024-02-26T04:01:54.312Z,998.1
2024-02-26T04:04:53.705Z,998.1
2024-02-26T04:07:54.109Z,998.1
2024-02-26T04:10:55.901Z,998.2
2024-02-26T04:13:53.505Z,998.1
2024-02-26T04:16:53.781Z,998.1
2024-02-26T04:19:54.526Z,998.3
2024-02-26T04:22:53.683Z,998.3
2024-02-26T04:25:53.890Z,998.3
2024-02-26T04:28:53.581Z,998.2
2024-02-26T04:31:53.953Z,998.3
2024-02-26T04:34:54.359Z,998.4
2024-02-26T04:37:53.651Z,998.4
2024-02-26T04:40:56.005Z,998.4
2024-02-26T04:43:53.355Z,998.4
2024-02-26T04:46:53.695Z,998.4
2024-02-26T04:49:54.708Z,998.4
2024-02-26T04:52:53.410Z,998.5
2024-02-26T04:55:53.387Z,998.5
2024-02-26T04:58:53.566Z,998.5
2024-02-26T05:01:54.390Z,998.5
2024-02-26T05:04:58.124Z,998.6
2024-02-26T05:07:54.305Z,998.6
2024-02-26T05:10:53.407Z,998.7
2024-02-26T05:13:53.725Z,998.6
2024-02-26T05:16:53.505Z,998.7
2024-02-26T05:19:54.239Z,998.6
2024-02-26T05:22:53.420Z,998.7
2024-02-26T05:25:53.788Z,998.7
2024-02-26T05:28:53.677Z,998.7
2024-02-26T05:31:53.742Z,998.5
2024-02-26T05:34:56.987Z,998.7
2024-02-26T05:37:53.368Z,998.7
2024-02-26T05:40:56.884Z,998.7
2024-02-26T05:43:53.541Z,998.8
2024-02-26T05:46:53.702Z,998.8
2024-02-26T05:49:54.952Z,998.8
2024-02-26T05:52:55.196Z,998.8
2024-02-26T05:55:53.704Z,999.0
2024-02-26T05:58:53.841Z,999.0
2024-02-26T06:01:54.391Z,998.8
2024-02-26T06:04:54.052Z,998.9
2024-02-26T06:07:54.497Z,999.2
2024-02-26T06:10:53.621Z,998.9
2024-02-26T06:13:53.558Z,999.0
2024-02-26T06:16:53.683Z,999.0
2024-02-26T06:19:54.562Z,999.0
2024-02-26T06:22:53.579Z,999.0
2024-02-26T06:25:53.609Z,999.0
2024-02-26T06:28:53.590Z,999.1
2024-02-26T06:31:53.723Z,999.1
2024-02-26T06:34:54.919Z,999.1
2024-02-26T06:37:53.461Z,999.2
2024-02-26T06:40:53.710Z,999.1
2024-02-26T06:43:54.422Z,999.3
2024-02-26T06:46:53.482Z,999.3
2024-02-26T06:49:58.063Z,999.3
2024-02-26T06:52:53.600Z,999.4
2024-02-26T06:55:53.541Z,999.4
2024-02-26T06:58:53.723Z,999.4
2024-02-26T07:01:54.575Z,999.4
2024-02-26T07:04:54.073Z,999.5
2024-02-26T07:07:54.372Z,999.5
2024-02-26T07:10:54.820Z,999.6
2024-02-26T07:13:55.086Z,999.7
2024-02-26T07:16:53.639Z,999.6
2024-02-26T07:19:54.630Z,999.7
2024-02-26T07:22:53.555Z,999.9
2024-02-26T07:25:53.447Z,999.9
2024-02-26T07:28:53.520Z,999.9
2024-02-26T07:31:53.875Z,999.9
2024-02-26T07:34:54.463Z,999.8
2024-02-26T07:37:53.623Z,1000.0
2024-02-26T07:41:03.302Z,999.8
2024-02-26T07:43:53.803Z,1000.0
2024-02-26T07:46:53.873Z,999.8
2024-02-26T07:49:56.257Z,1000.0
2024-02-26T07:52:53.900Z,1000.0
2024-02-26T07:55:56.276Z,1000.0
2024-02-26T07:58:57.237Z,1000.1
2024-02-26T08:01:56.068Z,1000.1
2024-02-26T08:04:54.059Z,1000.2
2024-02-26T08:07:59.125Z,1000.3
2024-02-26T08:10:53.510Z,1000.2
2024-02-26T08:13:53.533Z,1000.2
2024-02-26T08:16:53.726Z,1000.4
2024-02-26T08:19:54.264Z,1000.6
2024-02-26T08:22:53.865Z,1000.4
2024-02-26T08:25:53.472Z,1000.4
2024-02-26T08:28:53.758Z,1000.5
2024-02-26T08:31:53.806Z,1000.5
2024-02-26T08:34:55.353Z,1000.6
2024-02-26T08:37:53.659Z,1000.6
2024-02-26T08:40:56.104Z,1000.6
2024-02-26T08:43:53.596Z,1000.6
2024-02-26T08:46:53.883Z,1000.7
2024-02-26T08:49:54.761Z,1000.6
2024-02-26T08:52:53.483Z,1000.8
2024-02-26T08:55:53.541Z,1000.8
2024-02-26T08:58:53.769Z,1000.8
2024-02-26T09:01:54.205Z,1000.8
2024-02-26T09:04:57.898Z,1000.8
2024-02-26T09:07:54.003Z,1001.0
2024-02-26T09:10:55.707Z,1000.9
2024-02-26T09:13:53.830Z,1001.0
2024-02-26T09:16:53.718Z,1000.9
2024-02-26T09:19:54.576Z,1001.0
2024-02-26T09:22:53.686Z,1001.0
2024-02-26T09:25:53.535Z,1001.2
2024-02-26T09:28:53.802Z,1001.2
2024-02-26T09:31:53.846Z,1001.1
2024-02-26T09:34:54.818Z,1001.2
2024-02-26T09:40:57.260Z,1001.3
2024-02-26T09:43:53.606Z,1001.5
2024-02-26T09:46:54.244Z,1001.6
2024-02-26T09:49:54.422Z,1001.7
2024-02-26T09:52:53.570Z,1001.6
2024-02-26T09:55:53.704Z,1001.5
2024-02-26T09:58:58.604Z,1001.6
2024-02-26T10:01:54.061Z,1001.6
2024-02-26T10:04:53.751Z,1001.8
2024-02-26T10:07:54.513Z,1001.7
2024-02-26T10:10:53.898Z,1001.9
2024-02-26T10:13:54.807Z,1001.6
2024-02-26T10:16:53.840Z,1001.7
2024-02-26T10:20:08.331Z,1001.9
2024-02-26T10:22:53.747Z,1001.8
2024-02-26T10:25:53.555Z,1001.9
2024-02-26T10:28:55.073Z,1002.1
2024-02-26T10:31:56.141Z,1002.0
2024-02-26T10:34:58.638Z,1002.0
2024-02-26T10:40:53.681Z,1002.3
2024-02-26T10:43:53.673Z,1002.3
2024-02-26T10:46:57.257Z,1002.3
2024-02-26T10:49:55.732Z,1002.4
2024-02-26T10:52:53.444Z,1002.3
2024-02-26T10:55:57.389Z,1002.4
2024-02-26T10:58:53.990Z,1002.7
2024-02-26T11:01:54.423Z,1002.6
2024-02-26T11:04:53.921Z,1002.6
2024-02-26T11:07:56.320Z,1002.6
2024-02-26T11:10:54.104Z,1002.9
2024-02-26T11:13:54.946Z,1002.7
2024-02-26T11:16:53.657Z,1002.7
2024-02-26T11:19:55.028Z,1002.9
2024-02-26T11:25:53.768Z,1003.0
2024-02-26T11:28:53.996Z,1003.0
2024-02-26T11:31:54.203Z,1003.0
2024-02-26T11:34:54.758Z,1003.0
2024-02-26T11:37:56.873Z,1003.2
2024-02-26T11:40:53.778Z,1003.1
2024-02-26T11:43:53.513Z,1003.1
2024-02-26T11:46:53.706Z,1003.1
2024-02-26T11:49:54.553Z,1003.6
2024-02-26T11:52:53.608Z,1003.2
2024-02-26T11:55:53.709Z,1003.1
2024-02-26T11:58:53.542Z,1003.2
2024-02-26T12:01:54.020Z,1003.2
2024-02-26T12:04:53.670Z,1003.2
2024-02-26T12:07:54.441Z,1003.2
2024-02-26T12:10:53.681Z,1003.2
2024-02-26T12:13:54.054Z,1003.2
2024-02-26T12:16:54.019Z,1003.3
2024-02-26T12:19:59.034Z,1003.5
2024-02-26T12:22:53.494Z,1003.4
2024-02-26T12:25:53.517Z,1003.6
2024-02-26T12:28:53.872Z,1003.5
2024-02-26T12:31:53.659Z,1003.6
2024-02-26T12:34:54.580Z,1003.6
2024-02-26T12:37:53.595Z,1003.5
2024-02-26T12:40:53.624Z,1003.7
2024-02-26T12:43:54.362Z,1003.9
2024-02-26T12:46:54.087Z,1003.6
2024-02-26T12:49:55.106Z,1003.7
2024-02-26T12:52:53.608Z,1003.8
2024-02-26T12:55:54.615Z,1003.7
2024-02-26T12:58:53.520Z,1003.8
2024-02-26T13:01:53.918Z,1003.8
2024-02-26T13:04:53.929Z,1004.2
2024-02-26T13:07:54.914Z,1003.9
2024-02-26T13:10:53.740Z,1003.9
2024-02-26T13:13:53.853Z,1004.0
2024-02-26T13:16:53.680Z,1004.1
2024-02-26T13:19:57.684Z,1004.1
2024-02-26T13:22:53.668Z,1004.2
2024-02-26T13:25:54.022Z,1004.1
2024-02-26T13:28:53.612Z,1004.2
2024-02-26T13:31:55.183Z,1004.1
2024-02-26T13:34:55.130Z,1004.2
2024-02-26T13:37:53.714Z,1004.2
2024-02-26T13:40:54.055Z,1004.3
2024-02-26T13:43:53.858Z,1004.2
2024-02-26T13:46:54.232Z,1004.4
2024-02-26T13:49:55.421Z,1004.4
2024-02-26T13:52:53.685Z,1004.5
2024-02-26T13:55:53.722Z,1004.5
2024-02-26T13:58:53.721Z,1004.5
2024-02-26T14:01:54.237Z,1004.6
2024-02-26T14:04:54.027Z,1004.6
2024-02-26T14:07:54.652Z,1004.7
2024-02-26T14:13:56.269Z,1004.8
2024-02-26T14:16:55.837Z,1004.9
2024-02-26T14:19:54.569Z,1004.8
2024-02-26T14:22:53.706Z,1004.8
2024-02-26T14:25:53.741Z,1004.8
2024-02-26T14:29:01.225Z,1005.0
2024-02-26T14:31:54.163Z,1004.9
2024-02-26T14:34:57.223Z,1005.0
2024-02-26T14:37:53.533Z,1005.2
2024-02-26T14:40:53.641Z,1005.1
2024-02-26T14:43:53.789Z,1005.2
2024-02-26T14:46:55.096Z,1005.2
2024-02-26T14:49:54.521Z,1005.3
2024-02-26T14:52:53.639Z,1005.5
2024-02-26T14:55:55.909Z,1005.5
2024-02-26T14:58:53.603Z,1005.4
2024-02-26T15:01:54.355Z,1005.6
2024-02-26T15:04:54.241Z,1005.5
2024-02-26T15:07:54.693Z,1005.5
2024-02-26T15:10:53.857Z,1005.6
2024-02-26T15:13:53.998Z,1005.6
2024-02-26T15:16:53.949Z,1005.6
2024-02-26T15:19:55.224Z,1005.7
2024-02-26T15:22:53.658Z,1005.8
2024-02-26T15:26:04.363Z,1005.8
2024-02-26T15:28:53.677Z,1005.9
2024-02-26T15:31:53.847Z,1005.8
2024-02-26T15:34:54.680Z,1005.9
2024-02-26T15:37:53.690Z,1006.0
2024-02-26T15:40:53.834Z,1006.0
2024-02-26T15:43:53.611Z,1006.2
2024-02-26T15:46:53.552Z,1006.2
2024-02-26T15:49:55.008Z,1006.2
2024-02-26T15:52:53.912Z,1006.3
2024-02-26T15:55:54.859Z,1006.3
2024-02-26T15:58:53.895Z,1006.4
2024-02-26T16:02:05.005Z,1006.3
2024-02-26T16:04:53.822Z,1006.4
2024-02-26T16:07:54.299Z,1006.4
2024-02-26T16:10:53.867Z,1006.5
2024-02-26T16:13:53.959Z,1006.7
2024-02-26T16:16:54.601Z,1006.5
2024-02-26T16:19:54.795Z,1006.8
2024-02-26T16:22:53.471Z,1006.8
2024-02-26T16:25:53.708Z,1006.9
2024-02-26T16:28:53.430Z,1006.8
2024-02-26T16:31:53.823Z,1006.9
2024-02-26T16:34:54.479Z,1006.9
2024-02-26T16:37:55.121Z,1006.8
2024-02-26T16:40:53.391Z,1006.9
2024-02-26T16:43:54.943Z,1006.9
2024-02-26T16:46:54.242Z,1007.0
2024-02-26T16:49:57.745Z,1007.0
2024-02-26T16:52:53.502Z,1007.0
2024-02-26T16:55:54.912Z,1007.2
2024-02-26T16:58:53.601Z,1007.1
2024-02-26T17:01:55.339Z,1007.1
2024-02-26T17:04:54.025Z,1007.2
2024-02-26T17:07:57.458Z,1007.3
2024-02-26T17:10:53.502Z,1007.2
2024-02-26T17:13:53.576Z,1007.3
2024-02-26T17:16:54.046Z,1007.3
2024-02-26T17:19:54.313Z,1007.5
2024-02-26T17:22:53.626Z,1007.5
2024-02-26T17:25:53.590Z,1007.5
2024-02-26T17:28:53.935Z,1007.6
2024-02-26T17:31:53.785Z,1007.7
2024-02-26T17:34:54.763Z,1007.8
2024-02-26T17:37:53.524Z,1007.9
2024-02-26T17:40:55.794Z,1007.9
2024-02-26T17:43:53.509Z,1008.0
2024-02-26T17:46:53.626Z,1008.0
2024-02-26T17:49:55.066Z,1008.1
2024-02-26T17:52:54.083Z,1008.1
2024-02-26T17:55:53.583Z,1008.3
2024-02-26T17:58:54.816Z,1008.3
2024-02-26T18:01:53.859Z,1008.4
2024-02-26T18:04:54.014Z,1008.4
2024-02-26T18:07:53.859Z,1008.5
2024-02-26T18:10:53.470Z,1008.6
2024-02-26T18:13:53.709Z,1008.7
2024-02-26T18:16:55.863Z,1008.8
2024-02-26T18:19:55.449Z,1008.9
2024-02-26T18:22:53.652Z,1008.9
2024-02-26T18:25:53.884Z,1008.9
2024-02-26T18:28:58.066Z,1009.0
2024-02-26T18:31:53.748Z,1009.0
2024-02-26T18:34:54.840Z,1009.1
2024-02-26T18:37:53.531Z,1009.2
2024-02-26T18:40:53.740Z,1009.4
2024-02-26T18:43:53.621Z,1009.3
2024-02-26T18:46:53.868Z,1009.3
2024-02-26T18:49:57.029Z,1009.4
2024-02-26T18:52:53.746Z,1009.5
2024-02-26T18:55:58.660Z,1009.6
2024-02-26T18:58:53.819Z,1009.7
2024-02-26T19:01:54.242Z,1009.7
2024-02-26T19:04:54.007Z,1009.8
2024-02-26T19:07:53.721Z,1009.8
2024-02-26T19:10:53.686Z,1009.9
2024-02-26T19:13:57.268Z,1009.9
2024-02-26T19:16:54.199Z,1010.0
2024-02-26T19:19:54.454Z,1010.0
2024-02-26T19:22:56.043Z,1010.1
2024-02-26T19:25:53.716Z,1010.1
2024-02-26T19:28:53.511Z,1010.2
2024-02-26T19:31:53.568Z,1010.2
2024-02-26T19:34:54.256Z,1010.3
2024-02-26T19:37:53.662Z,1010.3
2024-02-26T19:40:53.600Z,1010.4
2024-02-26T19:43:53.556Z,1010.4
2024-02-26T19:46:53.683Z,1010.4
2024-02-26T19:49:54.578Z,1010.5
2024-02-26T19:52:53.918Z,1010.6
2024-02-26T19:55:53.672Z,1010.7
2024-02-26T19:58:53.708Z,1010.7
2024-02-26T20:01:54.117Z,1010.7
2024-02-26T20:04:55.584Z,1010.7
2024-02-26T20:07:54.004Z,1010.8
2024-02-26T20:10:53.826Z,1010.8
2024-02-26T20:13:54.215Z,1010.8
2024-02-26T20:16:53.617Z,1010.9
2024-02-26T20:19:54.765Z,1010.8
2024-02-26T20:22:56.466Z,1010.9
2024-02-26T20:25:53.515Z,1010.9
2024-02-26T20:28:53.615Z,1011.0
2024-02-26T20:31:53.762Z,1011.0
2024-02-26T20:34:56.067Z,1011.0
2024-02-26T20:37:53.561Z,1011.0
2024-02-26T20:40:53.853Z,1011.2
2024-02-26T20:43:53.756Z,1011.2
2024-02-26T20:46:53.496Z,1011.2
2024-02-26T20:49:54.739Z,1011.2
2024-02-26T20:52:53.654Z,1011.2
2024-02-26T20:55:53.584Z,1011.2
2024-02-26T20:58:53.696Z,1011.3
2024-02-26T21:01:53.773Z,1011.4
2024-02-26T21:04:57.198Z,1011.4
2024-02-26T21:07:53.989Z,1011.4
2024-02-26T21:10:54.032Z,1011.4
2024-02-26T21:13:54.013Z,1011.5
2024-02-26T21:16:53.652Z,1011.5
2024-02-26T21:19:58.589Z,1011.6
2024-02-26T21:22:53.553Z,1011.7
2024-02-26T21:25:56.988Z,1011.7
2024-02-26T21:28:53.604Z,1011.9
2024-02-26T21:31:53.657Z,1011.7
2024-02-26T21:34:54.629Z,1011.9
2024-02-26T21:37:53.504Z,1011.8
2024-02-26T21:40:53.584Z,1011.9
2024-02-26T21:43:53.390Z,1011.8
2024-02-26T21:46:53.571Z,1011.8
2024-02-26T21:49:56.493Z,1011.9
2024-02-26T21:52:53.622Z,1011.9
2024-02-26T21:55:54.249Z,1012.0
2024-02-26T21:58:53.509Z,1012.0
2024-02-26T22:01:54.286Z,1012.2
2024-02-26T22:04:54.512Z,1012.2
2024-02-26T22:07:54.929Z,1012.1
2024-02-26T22:10:53.927Z,1012.2
2024-02-26T22:13:53.889Z,1012.2
2024-02-26T22:16:53.829Z,1012.4
2024-02-26T22:19:55.985Z,1012.3
2024-02-26T22:22:57.078Z,1012.4
2024-02-26T22:25:53.618Z,1012.4
2024-02-26T22:28:53.565Z,1012.5
2024-02-26T22:31:53.978Z,1012.3
2024-02-26T22:34:54.910Z,1012.5
2024-02-26T22:37:53.786Z,1012.5
2024-02-26T22:40:53.658Z,1012.5
2024-02-26T22:43:53.443Z,1012.5
2024-02-26T22:46:53.639Z,1012.4
2024-02-26T22:49:54.676Z,1012.7
2024-02-26T22:52:53.596Z,1012.5
2024-02-26T22:55:53.686Z,1012.6
2024-02-26T22:58:53.417Z,1012.5
2024-02-26T23:01:54.710Z,1012.6
2024-02-26T23:04:54.181Z,1012.6
2024-02-26T23:07:54.386Z,1012.7
2024-02-26T23:10:53.509Z,1012.6
2024-02-26T23:13:53.532Z,1012.8
2024-02-26T23:16:53.536Z,1012.9
2024-02-26T23:19:54.145Z,1012.9
2024-02-26T23:22:55.231Z,1012.9
2024-02-26T23:25:53.526Z,1012.8
2024-02-26T23:28:53.779Z,1013.0
2024-02-26T23:31:53.901Z,1013.0
2024-02-26T23:34:55.070Z,1013.0
2024-02-26T23:37:53.567Z,1013.0
2024-02-26T23:40:54.102Z,1013.2
2024-02-26T23:43:53.985Z,1013.0
2024-02-26T23:46:53.598Z,1013.0
2024-02-26T23:49:53.845Z,1013.0
2024-02-26T23:52:53.527Z,1013.2
2024-02-26T23:55:53.727Z,1013.2
2024-02-26T23:58:53.612Z,1013.2
